createdAt,value
2023-02-25T00:00:42.978Z,0.00
2023-02-25T00:01:51.219Z,0.00
2023-02-25T00:02:46.967Z,0.00
2023-02-25T00:03:43.467Z,0.00
2023-02-25T00:04:44.376Z,0.00
2023-02-25T00:05:43.895Z,0.00
2023-02-25T00:06:44.839Z,0.00
2023-02-25T00:07:44.704Z,0.00
2023-02-25T00:08:44.489Z,0.00
2023-02-25T00:09:44.646Z,0.00
2023-02-25T00:10:44.804Z,0.00
2023-02-25T00:11:44.972Z,0.00
2023-02-25T00:12:45.148Z,0.00
2023-02-25T00:13:45.880Z,0.00
2023-02-25T00:14:45.543Z,0.00
2023-02-25T00:15:45.744Z,0.00
2023-02-25T00:16:45.982Z,0.00
2023-02-25T00:17:46.038Z,0.00
2023-02-25T00:18:46.197Z,0.00
2023-02-25T00:19:46.337Z,0.00
2023-02-25T00:20:47.510Z,0.00
2023-02-25T00:21:46.660Z,0.00
2023-02-25T00:22:46.828Z,0.00
2023-02-25T00:23:47.788Z,0.00
2023-02-25T00:24:47.125Z,0.00
2023-02-25T00:25:47.266Z,0.00
2023-02-25T00:26:47.890Z,0.00
2023-02-25T00:27:48.333Z,0.00
2023-02-25T00:28:48.902Z,0.00
2023-02-25T00:29:48.861Z,0.00
2023-02-25T00:30:48.905Z,0.00
2023-02-25T00:31:48.532Z,0.00
2023-02-25T00:32:48.573Z,0.00
2023-02-25T00:33:48.826Z,0.00
2023-02-25T00:34:49.001Z,0.00
2023-02-25T00:35:49.158Z,0.00
2023-02-25T00:36:50.906Z,0.00
2023-02-25T00:37:50.387Z,0.00
2023-02-25T00:38:49.676Z,0.00
2023-02-25T00:39:49.806Z,0.00
2023-02-25T00:40:50.982Z,0.00
2023-02-25T00:41:51.851Z,0.00
2023-02-25T00:42:50.346Z,0.00
2023-02-25T00:43:50.550Z,0.00
2023-02-25T00:44:50.733Z,0.00
2023-02-25T00:45:51.711Z,0.00
2023-02-25T00:46:51.898Z,0.00
2023-02-25T00:47:52.851Z,0.00
2023-02-25T00:48:51.901Z,0.00
2023-02-25T00:49:51.664Z,0.00
2023-02-25T00:50:52.852Z,0.00
2023-02-25T00:51:52.402Z,0.00
2023-02-25T00:52:53.353Z,0.00
2023-02-25T00:53:52.890Z,0.00
2023-02-25T00:54:52.547Z,0.00
2023-02-25T00:55:53.357Z,0.00
2023-02-25T00:56:52.868Z,0.00
2023-02-25T00:57:53.052Z,0.00
2023-02-25T00:58:53.241Z,0.00
2023-02-25T00:59:54.401Z,0.00
2023-02-25T01:00:53.664Z,0.00
2023-02-25T01:01:54.426Z,0.00
2023-02-25T01:02:55.915Z,0.00
2023-02-25T01:03:54.165Z,0.00
2023-02-25T01:04:54.366Z,0.00
2023-02-25T01:05:56.360Z,0.00
2023-02-25T01:06:54.775Z,0.00
2023-02-25T01:07:54.978Z,0.00
2023-02-25T01:08:55.127Z,0.00
2023-02-25T01:09:55.306Z,0.00
2023-02-25T01:10:56.396Z,0.00
2023-02-25T01:11:56.395Z,0.00
2023-02-25T01:12:55.944Z,0.00
2023-02-25T01:13:56.162Z,0.00
2023-02-25T01:14:57.257Z,0.00
2023-02-25T01:15:57.391Z,0.00
2023-02-25T01:16:56.578Z,0.00
2023-02-25T01:17:56.753Z,0.00
2023-02-25T01:18:56.911Z,0.00
2023-02-25T01:19:57.874Z,0.00
2023-02-25T01:20:57.266Z,0.00
2023-02-25T01:21:58.390Z,0.00
2023-02-25T01:22:57.617Z,0.00
2023-02-25T01:23:57.758Z,0.00
2023-02-25T01:24:57.940Z,0.00
2023-02-25T01:25:58.852Z,0.00
2023-02-25T01:26:58.290Z,0.00
2023-02-25T01:27:58.465Z,0.00
2023-02-25T01:28:59.213Z,0.00
2023-02-25T01:30:00.713Z,0.00
2023-02-25T01:30:59.807Z,0.00
2023-02-25T01:32:00.091Z,0.00
2023-02-25T01:32:59.518Z,0.00
2023-02-25T01:34:00.390Z,0.00
2023-02-25T01:34:59.832Z,0.00
2023-02-25T01:36:00.896Z,0.00
2023-02-25T01:37:00.159Z,0.00
2023-02-25T01:38:00.898Z,0.00
2023-02-25T01:39:00.924Z,0.00
2023-02-25T01:40:00.689Z,0.00
2023-02-25T01:41:00.849Z,0.00
2023-02-25T01:42:01.029Z,0.00
2023-02-25T01:43:01.855Z,0.00
2023-02-25T01:44:01.405Z,0.00
2023-02-25T01:45:03.854Z,0.00
2023-02-25T01:46:01.809Z,0.00
2023-02-25T01:47:02.127Z,0.00
2023-02-25T01:48:03.217Z,0.00
2023-02-25T01:49:02.357Z,0.00
2023-02-25T01:50:02.517Z,0.00
2023-02-25T01:51:02.707Z,0.00
2023-02-25T01:52:03.412Z,0.00
2023-02-25T01:53:05.890Z,0.00
2023-02-25T01:54:03.224Z,0.00
2023-02-25T01:55:03.393Z,0.00
2023-02-25T01:56:03.585Z,0.00
2023-02-25T01:57:05.367Z,0.00
2023-02-25T01:58:03.869Z,0.00
2023-02-25T01:59:04.060Z,0.00
2023-02-25T02:00:04.903Z,0.00
2023-02-25T02:01:05.466Z,0.00
2023-02-25T02:02:05.431Z,0.00
2023-02-25T02:03:05.404Z,0.00
2023-02-25T02:04:05.904Z,0.00
2023-02-25T02:05:05.058Z,0.00
2023-02-25T02:06:05.220Z,0.00
2023-02-25T02:07:05.410Z,0.00
2023-02-25T02:08:05.590Z,0.00
2023-02-25T02:09:05.761Z,0.00
2023-02-25T02:10:06.926Z,0.00
2023-02-25T02:11:06.072Z,0.00
2023-02-25T02:12:06.258Z,0.00
2023-02-25T02:13:06.468Z,0.00
2023-02-25T02:14:06.633Z,0.00
2023-02-25T02:15:07.368Z,0.00
2023-02-25T02:16:07.099Z,0.00
2023-02-25T02:17:07.284Z,0.00
2023-02-25T02:18:07.950Z,0.00
2023-02-25T02:19:07.586Z,0.00
2023-02-25T02:20:07.735Z,0.00
2023-02-25T02:21:07.886Z,0.00
2023-02-25T02:22:09.739Z,0.00
2023-02-25T02:23:08.241Z,0.00
2023-02-25T02:24:08.398Z,0.00
2023-02-25T02:25:08.549Z,0.00
2023-02-25T02:26:08.723Z,0.00
2023-02-25T02:27:09.872Z,0.00
2023-02-25T02:28:09.053Z,0.00
2023-02-25T02:29:09.868Z,0.00
2023-02-25T02:30:09.403Z,0.00
2023-02-25T02:31:09.694Z,0.00
2023-02-25T02:32:09.897Z,0.00
2023-02-25T02:33:09.994Z,0.00
2023-02-25T02:34:10.189Z,0.00
2023-02-25T02:35:10.373Z,0.00
2023-02-25T02:36:11.442Z,0.00
2023-02-25T02:37:11.375Z,0.00
2023-02-25T02:38:11.876Z,0.00
2023-02-25T02:39:12.372Z,0.00
2023-02-25T02:40:11.887Z,0.00
2023-02-25T02:41:12.240Z,0.00
2023-02-25T02:42:11.587Z,0.00
2023-02-25T02:43:12.725Z,0.00
2023-02-25T02:44:33.814Z,0.00
2023-02-25T02:45:13.044Z,0.00
2023-02-25T02:46:12.307Z,0.00
2023-02-25T02:47:13.512Z,0.00
2023-02-25T02:48:13.368Z,0.00
2023-02-25T02:49:14.365Z,0.00
2023-02-25T02:50:13.006Z,0.00
2023-02-25T02:51:13.868Z,0.00
2023-02-25T02:52:13.411Z,0.00
2023-02-25T02:53:13.554Z,0.00
2023-02-25T02:54:13.722Z,0.00
2023-02-25T02:55:13.885Z,0.00
2023-02-25T02:56:14.865Z,0.00
2023-02-25T02:57:14.257Z,0.00
2023-02-25T02:58:14.413Z,0.00
2023-02-25T02:59:15.403Z,0.00
2023-02-25T03:00:15.412Z,0.00
2023-02-25T03:01:15.020Z,0.00
2023-02-25T03:02:15.139Z,0.00
2023-02-25T03:03:15.330Z,0.00
2023-02-25T03:04:15.538Z,0.00
2023-02-25T03:05:15.644Z,0.00
2023-02-25T03:06:15.845Z,0.00
2023-02-25T03:07:16.025Z,0.00
2023-02-25T03:08:17.381Z,0.00
2023-02-25T03:09:17.404Z,0.00
2023-02-25T03:10:16.654Z,0.00
2023-02-25T03:11:16.831Z,0.00
2023-02-25T03:12:17.051Z,0.00
2023-02-25T03:13:18.730Z,0.00
2023-02-25T03:14:17.354Z,0.00
2023-02-25T03:15:18.367Z,0.00
2023-02-25T03:16:17.816Z,0.00
2023-02-25T03:17:18.032Z,0.00
2023-02-25T03:18:18.136Z,0.00
2023-02-25T03:19:18.337Z,0.00
2023-02-25T03:20:18.494Z,0.00
2023-02-25T03:21:20.373Z,0.00
2023-02-25T03:22:20.370Z,0.00
2023-02-25T03:23:19.138Z,0.00
2023-02-25T03:24:19.328Z,0.00
2023-02-25T03:25:19.554Z,0.00
2023-02-25T03:26:19.770Z,0.00
2023-02-25T03:27:19.879Z,0.00
2023-02-25T03:28:20.051Z,0.00
2023-02-25T03:29:20.216Z,0.00
2023-02-25T03:30:20.441Z,0.00
2023-02-25T03:31:20.693Z,0.00
2023-02-25T03:32:21.009Z,0.00
2023-02-25T03:33:21.046Z,0.00
2023-02-25T03:34:21.202Z,0.00
2023-02-25T03:35:21.884Z,0.00
2023-02-25T03:36:22.672Z,0.00
2023-02-25T03:37:21.756Z,0.00
2023-02-25T03:38:21.923Z,0.00
2023-02-25T03:39:22.745Z,0.00
2023-02-25T03:40:23.875Z,0.00
2023-02-25T03:41:22.518Z,0.00
2023-02-25T03:42:23.428Z,0.00
2023-02-25T03:43:22.814Z,0.00
2023-02-25T03:44:23.923Z,0.00
2023-02-25T03:45:23.191Z,0.00
2023-02-25T03:46:24.817Z,0.00
2023-02-25T03:47:24.426Z,0.00
2023-02-25T03:48:23.698Z,0.00
2023-02-25T03:49:23.864Z,0.00
2023-02-25T03:50:24.060Z,0.00
2023-02-25T03:51:24.439Z,0.00
2023-02-25T03:52:24.359Z,0.00
2023-02-25T03:53:24.555Z,0.00
2023-02-25T03:54:24.758Z,0.00
2023-02-25T03:55:24.941Z,0.00
2023-02-25T03:56:26.746Z,0.00
2023-02-25T03:57:27.386Z,0.00
2023-02-25T03:58:26.249Z,0.00
2023-02-25T03:59:25.528Z,0.00
2023-02-25T04:00:25.695Z,0.00
2023-02-25T04:01:27.258Z,0.00
2023-02-25T04:02:26.074Z,0.00
2023-02-25T04:03:26.184Z,0.00
2023-02-25T04:04:27.390Z,0.00
2023-02-25T04:05:27.386Z,0.00
2023-02-25T04:06:26.779Z,0.00
2023-02-25T04:07:26.934Z,0.00
2023-02-25T04:08:27.094Z,0.00
2023-02-25T04:09:27.275Z,0.00
2023-02-25T04:10:28.437Z,0.00
2023-02-25T04:11:27.612Z,0.00
2023-02-25T04:12:27.803Z,0.00
2023-02-25T04:13:27.956Z,0.00
2023-02-25T04:14:28.169Z,0.00
2023-02-25T04:15:28.343Z,0.00
2023-02-25T04:16:28.513Z,0.00
2023-02-25T04:17:29.420Z,0.00
2023-02-25T04:18:29.423Z,0.00
2023-02-25T04:19:29.442Z,0.00
2023-02-25T04:20:29.202Z,0.00
2023-02-25T04:21:29.959Z,0.00
2023-02-25T04:22:30.434Z,0.00
2023-02-25T04:23:30.454Z,0.00
2023-02-25T04:24:29.863Z,0.00
2023-02-25T04:25:30.435Z,0.00
2023-02-25T04:26:30.255Z,0.00
2023-02-25T04:27:31.326Z,0.00
2023-02-25T04:28:31.391Z,0.00
2023-02-25T04:29:32.391Z,0.00
2023-02-25T04:30:34.235Z,0.00
2023-02-25T04:31:32.353Z,0.00
2023-02-25T04:32:31.641Z,0.00
2023-02-25T04:33:32.252Z,0.00
2023-02-25T04:34:31.865Z,0.00
2023-02-25T04:35:32.933Z,0.00
2023-02-25T04:36:32.894Z,0.00
2023-02-25T04:37:32.934Z,0.00
2023-02-25T04:38:32.635Z,0.00
2023-02-25T04:39:32.805Z,0.00
2023-02-25T04:40:32.961Z,0.00
2023-02-25T04:41:33.890Z,0.00
2023-02-25T04:42:33.289Z,0.00
2023-02-25T04:43:33.462Z,0.00
2023-02-25T04:44:33.615Z,0.00
2023-02-25T04:45:35.894Z,0.00
2023-02-25T04:46:35.979Z,0.00
2023-02-25T04:47:34.899Z,0.00
2023-02-25T04:48:34.446Z,0.00
2023-02-25T04:49:36.892Z,0.00
2023-02-25T04:50:34.761Z,0.00
2023-02-25T04:51:34.935Z,0.00
2023-02-25T04:52:35.122Z,0.00
2023-02-25T04:53:35.454Z,0.00
2023-02-25T04:54:35.523Z,0.00
2023-02-25T04:55:36.396Z,0.00
2023-02-25T04:56:36.753Z,0.00
2023-02-25T04:57:38.396Z,0.00
2023-02-25T04:58:36.391Z,0.00
2023-02-25T04:59:36.548Z,0.00
2023-02-25T05:00:36.723Z,0.00
2023-02-25T05:01:37.971Z,0.00
2023-02-25T05:02:37.935Z,0.00
2023-02-25T05:03:37.902Z,0.00
2023-02-25T05:04:37.468Z,0.00
2023-02-25T05:05:37.579Z,0.00
2023-02-25T05:06:38.438Z,0.00
2023-02-25T05:07:38.934Z,0.00
2023-02-25T05:08:38.117Z,0.00
2023-02-25T05:09:38.957Z,0.00
2023-02-25T05:10:38.527Z,0.00
2023-02-25T05:11:38.700Z,0.00
2023-02-25T05:12:39.946Z,0.00
2023-02-25T05:13:41.414Z,0.00
2023-02-25T05:14:40.900Z,0.00
2023-02-25T05:15:39.901Z,0.00
2023-02-25T05:16:39.697Z,0.00
2023-02-25T05:17:40.654Z,0.00
2023-02-25T05:18:39.829Z,0.00
2023-02-25T05:19:40.026Z,0.00
2023-02-25T05:20:40.977Z,0.00
2023-02-25T05:21:41.406Z,0.00
2023-02-25T05:22:41.578Z,0.00
2023-02-25T05:23:40.722Z,0.00
2023-02-25T05:24:40.915Z,0.00
2023-02-25T05:25:41.939Z,0.00
2023-02-25T05:26:41.762Z,0.00
2023-02-25T05:27:41.426Z,0.00
2023-02-25T05:28:41.586Z,0.00
2023-02-25T05:29:41.793Z,0.00
2023-02-25T05:30:43.988Z,0.00
2023-02-25T05:31:42.428Z,0.00
2023-02-25T05:32:42.402Z,0.00
2023-02-25T05:33:42.410Z,0.00
2023-02-25T05:34:42.571Z,0.00
2023-02-25T05:35:42.752Z,0.00
2023-02-25T05:36:43.451Z,0.00
2023-02-25T05:37:43.465Z,0.00
2023-02-25T05:38:43.764Z,0.00
2023-02-25T05:39:43.416Z,0.00
2023-02-25T05:40:45.411Z,0.00
2023-02-25T05:41:44.414Z,0.00
2023-02-25T05:42:43.940Z,0.00
2023-02-25T05:43:44.141Z,0.00
2023-02-25T05:44:44.319Z,0.00
2023-02-25T05:45:45.445Z,0.00
2023-02-25T05:46:46.465Z,0.00
2023-02-25T05:47:44.863Z,0.00
2023-02-25T05:48:45.013Z,0.00
2023-02-25T05:49:45.174Z,0.00
2023-02-25T05:50:45.966Z,0.00
2023-02-25T05:51:45.496Z,0.00
2023-02-25T05:52:46.448Z,0.00
2023-02-25T05:53:46.467Z,0.00
2023-02-25T05:54:45.995Z,0.00
2023-02-25T05:55:46.159Z,0.00
2023-02-25T05:56:46.370Z,0.00
2023-02-25T05:57:47.440Z,0.00
2023-02-25T05:58:46.705Z,0.00
2023-02-25T05:59:47.904Z,0.00
2023-02-25T06:00:47.039Z,0.00
2023-02-25T06:01:47.227Z,0.00
2023-02-25T06:02:48.921Z,0.00
2023-02-25T06:03:47.556Z,0.00
2023-02-25T06:04:47.732Z,0.00
2023-02-25T06:05:48.404Z,0.00
2023-02-25T06:06:48.940Z,0.00
2023-02-25T06:07:48.948Z,0.00
2023-02-25T06:08:48.322Z,0.00
2023-02-25T06:09:48.537Z,0.00
2023-02-25T06:10:48.710Z,0.00
2023-02-25T06:11:48.852Z,0.00
2023-02-25T06:12:49.030Z,0.00
2023-02-25T06:13:49.189Z,0.00
2023-02-25T06:14:49.358Z,0.00
2023-02-25T06:15:50.401Z,0.00
2023-02-25T06:16:49.687Z,0.00
2023-02-25T06:17:49.867Z,0.00
2023-02-25T06:18:50.070Z,0.00
2023-02-25T06:19:50.224Z,0.00
2023-02-25T06:20:50.912Z,0.00
2023-02-25T06:21:50.563Z,0.00
2023-02-25T06:22:50.708Z,0.00
2023-02-25T06:23:51.770Z,0.00
2023-02-25T06:24:51.040Z,0.00
2023-02-25T06:25:51.903Z,0.00
2023-02-25T06:26:52.402Z,0.00
2023-02-25T06:27:51.541Z,0.00
2023-02-25T06:28:51.731Z,0.00
2023-02-25T06:29:51.895Z,0.00
2023-02-25T06:30:52.138Z,0.00
2023-02-25T06:31:52.339Z,0.00
2023-02-25T06:32:52.470Z,0.00
2023-02-25T06:33:52.662Z,0.00
2023-02-25T06:34:52.801Z,0.00
2023-02-25T06:35:54.910Z,0.00
2023-02-25T06:36:53.142Z,0.00
2023-02-25T06:37:53.309Z,0.00
2023-02-25T06:38:53.477Z,0.00
2023-02-25T06:39:53.632Z,0.00
2023-02-25T06:40:54.457Z,0.00
2023-02-25T06:41:53.955Z,0.00
2023-02-25T06:42:54.112Z,0.00
2023-02-25T06:43:54.309Z,5.62
2023-02-25T06:44:55.405Z,5.62
2023-02-25T06:45:54.682Z,5.62
2023-02-25T06:46:54.876Z,5.62
2023-02-25T06:47:55.904Z,5.62
2023-02-25T06:48:55.151Z,5.62
2023-02-25T06:49:55.275Z,5.62
2023-02-25T06:50:55.436Z,5.62
2023-02-25T06:51:55.636Z,5.62
2023-02-25T06:52:55.786Z,5.62
2023-02-25T06:53:55.954Z,5.62
2023-02-25T06:54:58.409Z,5.62
2023-02-25T06:55:56.950Z,5.62
2023-02-25T06:56:56.492Z,5.62
2023-02-25T06:57:56.682Z,5.62
2023-02-25T06:58:56.878Z,5.62
2023-02-25T06:59:57.046Z,5.62
2023-02-25T07:00:57.987Z,5.62
2023-02-25T07:01:57.422Z,5.62
2023-02-25T07:02:58.414Z,5.62
2023-02-25T07:03:57.805Z,5.62
2023-02-25T07:04:57.973Z,5.62
2023-02-25T07:05:58.178Z,5.62
2023-02-25T07:06:58.380Z,5.62
2023-02-25T07:07:58.544Z,5.62
2023-02-25T07:08:58.708Z,5.62
2023-02-25T07:09:58.876Z,5.62
2023-02-25T07:10:59.069Z,11.25
2023-02-25T07:11:59.911Z,11.25
2023-02-25T07:12:59.957Z,11.25
2023-02-25T07:13:59.597Z,11.25
2023-02-25T07:14:59.742Z,5.62
2023-02-25T07:15:59.965Z,5.62
2023-02-25T07:17:00.912Z,5.62
2023-02-25T07:18:01.408Z,5.62
2023-02-25T07:19:00.383Z,5.62
2023-02-25T07:20:02.419Z,5.62
2023-02-25T07:21:00.663Z,5.62
2023-02-25T07:22:00.837Z,11.25
2023-02-25T07:23:00.999Z,11.25
2023-02-25T07:24:01.171Z,16.88
2023-02-25T07:25:01.982Z,22.50
2023-02-25T07:26:01.547Z,22.50
2023-02-25T07:27:02.456Z,22.50
2023-02-25T07:28:01.818Z,22.50
2023-02-25T07:29:01.973Z,22.50
2023-02-25T07:30:02.158Z,16.88
2023-02-25T07:31:03.041Z,11.25
2023-02-25T07:32:04.149Z,5.62
2023-02-25T07:33:03.317Z,5.62
2023-02-25T07:34:04.422Z,5.62
2023-02-25T07:35:03.958Z,5.62
2023-02-25T07:36:03.226Z,5.62
2023-02-25T07:37:03.917Z,5.62
2023-02-25T07:38:03.542Z,5.62
2023-02-25T07:39:03.719Z,5.62
2023-02-25T07:40:03.868Z,5.62
2023-02-25T07:41:04.969Z,5.62
2023-02-25T07:42:04.475Z,5.62
2023-02-25T07:43:04.936Z,5.62
2023-02-25T07:44:05.001Z,11.25
2023-02-25T07:45:04.755Z,11.25
2023-02-25T07:46:04.977Z,11.25
2023-02-25T07:47:06.425Z,11.25
2023-02-25T07:48:05.277Z,16.88
2023-02-25T07:49:05.438Z,16.88
2023-02-25T07:50:06.462Z,22.50
2023-02-25T07:51:05.703Z,22.50
2023-02-25T07:52:06.434Z,28.12
2023-02-25T07:53:06.482Z,33.75
2023-02-25T07:54:06.247Z,28.12
2023-02-25T07:55:06.413Z,28.12
2023-02-25T07:56:06.548Z,33.75
2023-02-25T07:57:06.700Z,33.75
2023-02-25T07:58:07.567Z,33.75
2023-02-25T07:59:08.032Z,28.12
2023-02-25T08:00:07.154Z,28.12
2023-02-25T08:01:07.966Z,28.12
2023-02-25T08:02:08.449Z,33.75
2023-02-25T08:03:08.449Z,33.75
2023-02-25T08:04:07.884Z,33.75
2023-02-25T08:05:08.037Z,28.12
2023-02-25T08:06:08.234Z,28.12
2023-02-25T08:07:08.422Z,22.50
2023-02-25T08:08:09.443Z,22.50
2023-02-25T08:09:09.791Z,22.50
2023-02-25T08:10:42.444Z,22.50
2023-02-25T08:11:09.172Z,22.50
2023-02-25T08:12:09.303Z,28.12
2023-02-25T08:13:09.431Z,22.50
2023-02-25T08:14:09.624Z,22.50
2023-02-25T08:15:09.777Z,22.50
2023-02-25T08:16:09.969Z,16.88
2023-02-25T08:17:10.156Z,16.88
2023-02-25T08:18:10.320Z,22.50
2023-02-25T08:19:10.492Z,28.12
2023-02-25T08:20:11.021Z,33.75
2023-02-25T08:21:11.541Z,28.12
2023-02-25T08:22:10.928Z,16.88
2023-02-25T08:23:11.104Z,16.88
2023-02-25T08:24:11.311Z,11.25
2023-02-25T08:25:11.527Z,11.25
2023-02-25T08:26:11.736Z,11.25
2023-02-25T08:27:11.937Z,16.88
2023-02-25T08:28:12.119Z,22.50
2023-02-25T08:29:12.971Z,28.12
2023-02-25T08:30:13.480Z,33.75
2023-02-25T08:31:13.679Z,39.38
2023-02-25T08:32:13.663Z,39.38
2023-02-25T08:33:13.020Z,45.00
2023-02-25T08:34:13.975Z,50.62
2023-02-25T08:35:13.400Z,67.50
2023-02-25T08:36:13.576Z,84.38
2023-02-25T08:37:13.798Z,95.62
2023-02-25T08:38:13.973Z,95.62
2023-02-25T08:39:15.008Z,106.88
2023-02-25T08:40:14.302Z,123.75
2023-02-25T08:41:15.478Z,146.25
2023-02-25T08:42:14.665Z,174.38
2023-02-25T08:43:14.881Z,196.88
2023-02-25T08:44:16.013Z,225.00
2023-02-25T08:45:15.302Z,270.00
2023-02-25T08:46:16.025Z,281.25
2023-02-25T08:47:15.609Z,348.75
2023-02-25T08:48:16.970Z,466.88
2023-02-25T08:49:16.518Z,320.62
2023-02-25T08:50:16.202Z,326.25
2023-02-25T08:51:17.026Z,286.88
2023-02-25T08:52:16.597Z,253.12
2023-02-25T08:53:17.470Z,230.62
2023-02-25T08:54:16.965Z,230.62
2023-02-25T08:55:18.008Z,270.00
2023-02-25T08:56:17.295Z,376.88
2023-02-25T08:57:17.493Z,376.88
2023-02-25T08:58:17.703Z,421.88
2023-02-25T08:59:18.508Z,354.38
2023-02-25T09:00:18.075Z,264.38
2023-02-25T09:01:18.445Z,253.12
2023-02-25T09:02:18.453Z,208.12
2023-02-25T09:03:18.655Z,225.00
2023-02-25T09:04:18.918Z,478.12
2023-02-25T09:05:20.665Z,202.50
2023-02-25T09:06:21.017Z,180.00
2023-02-25T09:07:19.409Z,180.00
2023-02-25T09:08:19.605Z,185.62
2023-02-25T09:09:20.533Z,213.75
2023-02-25T09:10:19.969Z,225.00
2023-02-25T09:11:20.139Z,241.88
2023-02-25T09:12:20.954Z,270.00
2023-02-25T09:13:22.474Z,326.25
2023-02-25T09:14:21.471Z,523.12
2023-02-25T09:15:20.923Z,315.00
2023-02-25T09:16:22.067Z,264.38
2023-02-25T09:17:21.353Z,247.50
2023-02-25T09:18:21.476Z,264.38
2023-02-25T09:19:21.673Z,230.62
2023-02-25T09:20:22.472Z,180.00
2023-02-25T09:21:22.399Z,163.12
2023-02-25T09:22:22.271Z,163.12
2023-02-25T09:23:23.002Z,163.12
2023-02-25T09:24:23.665Z,163.12
2023-02-25T09:25:22.814Z,151.88
2023-02-25T09:26:23.833Z,157.50
2023-02-25T09:27:23.248Z,185.62
2023-02-25T09:28:24.654Z,213.75
2023-02-25T09:29:24.603Z,241.88
2023-02-25T09:30:23.801Z,247.50
2023-02-25T09:31:25.462Z,241.88
2023-02-25T09:32:24.243Z,236.25
2023-02-25T09:33:24.324Z,241.88
2023-02-25T09:34:24.523Z,219.38
2023-02-25T09:35:24.687Z,230.62
2023-02-25T09:36:24.858Z,258.75
2023-02-25T09:37:25.986Z,281.25
2023-02-25T09:38:25.255Z,258.75
2023-02-25T09:39:26.018Z,236.25
2023-02-25T09:40:25.577Z,241.88
2023-02-25T09:41:26.032Z,258.75
2023-02-25T09:42:25.961Z,247.50
2023-02-25T09:43:26.126Z,208.12
2023-02-25T09:44:26.310Z,185.62
2023-02-25T09:45:26.983Z,180.00
2023-02-25T09:46:27.988Z,146.25
2023-02-25T09:47:26.890Z,118.12
2023-02-25T09:48:27.493Z,101.25
2023-02-25T09:49:27.171Z,101.25
2023-02-25T09:50:27.356Z,106.88
2023-02-25T09:51:28.979Z,112.50
2023-02-25T09:52:28.995Z,106.88
2023-02-25T09:53:27.906Z,123.75
2023-02-25T09:54:28.144Z,163.12
2023-02-25T09:55:29.033Z,202.50
2023-02-25T09:56:29.484Z,236.25
2023-02-25T09:57:29.990Z,202.50
2023-02-25T09:58:28.914Z,174.38
2023-02-25T09:59:29.083Z,118.12
2023-02-25T10:00:30.029Z,101.25
2023-02-25T10:01:29.467Z,101.25
2023-02-25T10:02:29.806Z,106.88
2023-02-25T10:03:30.544Z,129.38
2023-02-25T10:04:30.017Z,151.88
2023-02-25T10:05:30.214Z,213.75
2023-02-25T10:06:30.439Z,613.12
2023-02-25T10:07:33.994Z,551.25
2023-02-25T10:08:30.866Z,450.00
2023-02-25T10:09:31.063Z,416.25
2023-02-25T10:10:31.236Z,472.50
2023-02-25T10:11:32.032Z,326.25
2023-02-25T10:12:32.501Z,303.75
2023-02-25T10:13:32.491Z,315.00
2023-02-25T10:14:32.024Z,360.00
2023-02-25T10:15:33.026Z,455.62
2023-02-25T10:16:32.489Z,675.00
2023-02-25T10:17:33.481Z,686.25
2023-02-25T10:18:32.882Z,511.88
2023-02-25T10:19:33.045Z,433.12
2023-02-25T10:20:33.996Z,410.62
2023-02-25T10:21:33.383Z,562.50
2023-02-25T10:22:34.041Z,450.00
2023-02-25T10:23:33.671Z,393.75
2023-02-25T10:24:33.844Z,371.25
2023-02-25T10:25:34.043Z,298.12
2023-02-25T10:26:34.210Z,320.62
2023-02-25T10:27:34.352Z,343.12
2023-02-25T10:28:34.498Z,506.25
2023-02-25T10:29:35.535Z,607.50
2023-02-25T10:30:35.939Z,376.88
2023-02-25T10:31:35.118Z,399.38
2023-02-25T10:32:35.232Z,478.12
2023-02-25T10:33:35.315Z,708.75
2023-02-25T10:34:35.472Z,433.12
2023-02-25T10:35:35.645Z,455.62
2023-02-25T10:36:35.836Z,382.50
2023-02-25T10:37:36.065Z,348.75
2023-02-25T10:38:37.005Z,315.00
2023-02-25T10:39:37.036Z,264.38
2023-02-25T10:40:36.653Z,185.62
2023-02-25T10:41:36.865Z,123.75
2023-02-25T10:42:37.084Z,73.12
2023-02-25T10:43:37.277Z,45.00
2023-02-25T10:44:40.003Z,45.00
2023-02-25T10:45:38.503Z,56.25
2023-02-25T10:46:37.879Z,61.88
2023-02-25T10:47:38.492Z,84.38
2023-02-25T10:48:38.185Z,95.62
2023-02-25T10:49:38.679Z,112.50
2023-02-25T10:50:46.032Z,135.00
2023-02-25T10:51:40.717Z,146.25
2023-02-25T10:52:38.839Z,140.62
2023-02-25T10:53:39.535Z,135.00
2023-02-25T10:54:39.208Z,129.38
2023-02-25T10:55:39.380Z,129.38
2023-02-25T10:56:39.545Z,123.75
2023-02-25T10:57:40.535Z,112.50
2023-02-25T10:58:39.914Z,112.50
2023-02-25T10:59:41.372Z,106.88
2023-02-25T11:00:40.261Z,95.62
2023-02-25T11:01:40.502Z,95.62
2023-02-25T11:02:41.693Z,101.25
2023-02-25T11:03:40.734Z,118.12
2023-02-25T11:04:41.077Z,140.62
2023-02-25T11:05:42.066Z,151.88
2023-02-25T11:06:42.077Z,129.38
2023-02-25T11:07:42.501Z,135.00
2023-02-25T11:08:42.365Z,135.00
2023-02-25T11:09:42.056Z,118.12
2023-02-25T11:10:43.006Z,90.00
2023-02-25T11:11:42.274Z,73.12
2023-02-25T11:12:42.474Z,61.88
2023-02-25T11:13:42.679Z,56.25
2023-02-25T11:14:43.125Z,73.12
2023-02-25T11:15:45.655Z,90.00
2023-02-25T11:16:45.007Z,118.12
2023-02-25T11:17:44.521Z,123.75
2023-02-25T11:18:43.543Z,118.12
2023-02-25T11:19:43.750Z,140.62
2023-02-25T11:20:45.001Z,146.25
2023-02-25T11:21:44.139Z,146.25
2023-02-25T11:22:45.044Z,129.38
2023-02-25T11:23:44.448Z,112.50
2023-02-25T11:24:44.666Z,95.62
2023-02-25T11:25:44.779Z,90.00
2023-02-25T11:26:45.548Z,95.62
2023-02-25T11:27:46.047Z,90.00
2023-02-25T11:28:46.370Z,90.00
2023-02-25T11:29:47.001Z,84.38
2023-02-25T11:30:46.648Z,78.75
2023-02-25T11:31:47.661Z,73.12
2023-02-25T11:32:46.193Z,61.88
2023-02-25T11:33:47.047Z,61.88
2023-02-25T11:34:47.501Z,56.25
2023-02-25T11:35:46.634Z,67.50
2023-02-25T11:36:50.780Z,84.38
2023-02-25T11:37:47.009Z,95.62
2023-02-25T11:38:47.185Z,101.25
2023-02-25T11:39:47.357Z,95.62
2023-02-25T11:40:47.538Z,84.38
2023-02-25T11:41:48.545Z,73.12
2023-02-25T11:42:48.554Z,67.50
2023-02-25T11:43:49.512Z,61.88
2023-02-25T11:44:48.288Z,61.88
2023-02-25T11:45:49.050Z,61.88
2023-02-25T11:46:50.568Z,61.88
2023-02-25T11:47:48.855Z,67.50
2023-02-25T11:48:49.051Z,73.12
2023-02-25T11:49:50.048Z,84.38
2023-02-25T11:50:49.460Z,95.62
2023-02-25T11:51:49.652Z,101.25
2023-02-25T11:52:50.551Z,106.88
2023-02-25T11:53:49.948Z,112.50
2023-02-25T11:54:50.094Z,118.12
2023-02-25T11:55:50.283Z,129.38
2023-02-25T11:56:50.448Z,129.38
2023-02-25T11:57:50.624Z,123.75
2023-02-25T11:58:51.512Z,129.38
2023-02-25T11:59:51.017Z,135.00
2023-02-25T12:00:51.221Z,140.62
2023-02-25T12:01:51.419Z,146.25
2023-02-25T12:02:52.540Z,157.50
2023-02-25T12:03:53.371Z,163.12
2023-02-25T12:04:51.997Z,168.75
2023-02-25T12:05:52.204Z,174.38
2023-02-25T12:06:52.293Z,185.62
2023-02-25T12:08:11.992Z,191.25
2023-02-25T12:08:54.602Z,196.88
2023-02-25T12:09:52.743Z,196.88
2023-02-25T12:10:53.551Z,191.25
2023-02-25T12:11:53.062Z,191.25
2023-02-25T12:12:53.240Z,191.25
2023-02-25T12:13:54.129Z,202.50
2023-02-25T12:14:53.543Z,213.75
2023-02-25T12:15:53.778Z,275.62
2023-02-25T12:16:53.893Z,309.38
2023-02-25T12:17:55.009Z,343.12
2023-02-25T12:18:55.053Z,286.88
2023-02-25T12:19:55.013Z,309.38
2023-02-25T12:20:54.611Z,241.88
2023-02-25T12:21:54.807Z,213.75
2023-02-25T12:22:54.981Z,180.00
2023-02-25T12:23:55.196Z,168.75
2023-02-25T12:24:55.874Z,174.38
2023-02-25T12:25:55.389Z,196.88
2023-02-25T12:26:56.519Z,174.38
2023-02-25T12:27:56.525Z,163.12
2023-02-25T12:28:57.020Z,180.00
2023-02-25T12:29:56.050Z,196.88
2023-02-25T12:30:56.260Z,208.12
2023-02-25T12:31:57.108Z,219.38
2023-02-25T12:32:57.554Z,225.00
2023-02-25T12:33:56.713Z,225.00
2023-02-25T12:34:56.903Z,225.00
2023-02-25T12:35:57.039Z,236.25
2023-02-25T12:36:58.218Z,292.50
2023-02-25T12:37:58.022Z,230.62
2023-02-25T12:38:58.058Z,185.62
2023-02-25T12:39:58.541Z,180.00
2023-02-25T12:40:57.959Z,168.75
2023-02-25T12:41:58.150Z,168.75
2023-02-25T12:42:58.330Z,168.75
2023-02-25T12:43:58.493Z,168.75
2023-02-25T12:45:00.529Z,168.75
2023-02-25T12:45:59.201Z,180.00
2023-02-25T12:46:59.137Z,174.38
2023-02-25T12:47:59.360Z,208.12
2023-02-25T12:49:00.091Z,225.00
2023-02-25T12:49:59.751Z,258.75
2023-02-25T12:50:59.972Z,264.38
2023-02-25T12:52:00.879Z,225.00
2023-02-25T12:53:01.077Z,315.00
2023-02-25T12:54:00.631Z,315.00
2023-02-25T12:55:01.564Z,315.00
2023-02-25T12:56:00.981Z,309.38
2023-02-25T12:57:01.147Z,219.38
2023-02-25T12:58:01.308Z,219.38
2023-02-25T12:59:01.486Z,219.38
2023-02-25T13:00:01.659Z,213.75
2023-02-25T13:01:01.935Z,202.50
2023-02-25T13:02:01.999Z,196.88